Time;durP1;ratioP1;P1;durP2;ratioP2;P2;SDS_P1;SDS_P2;PMS_P1;PMS_P2;Temp;Humidity;BMP_temperature;BMP_pressure;BME280_temperature;BME280_humidity;BME280_pressure;Samples;Min_cycle;Max_cycle;Signal;HPM_P1;HPM_P2
2022/12/06 00:02:04;;;;;;;15.07;5.50;;;;;;;15.21;44.47;102218.50;5098429;28;20048;-70
2022/12/06 00:04:30;;;;;;;15.30;5.57;;;;;;;14.90;45.27;102218.69;5129224;27;20033;-71
2022/12/06 00:06:56;;;;;;;10.43;5.13;;;;;;;14.63;45.41;102215.34;5113711;27;20072;-70
2022/12/06 00:09:28;;;;;;;14.97;5.63;;;;;;;14.37;46.49;102216.28;5114751;27;20050;-70
2022/12/06 00:11:54;;;;;;;12.10;5.30;;;;;;;14.67;45.88;102219.69;5113733;27;20466;-70
2022/12/06 00:14:19;;;;;;;18.47;5.60;;;;;;;14.60;46.40;102220.56;5112318;27;20331;-70
2022/12/06 00:16:45;;;;;;;11.40;5.30;;;;;;;14.42;46.45;102218.88;5113592;27;20115;-70
2022/12/06 00:19:13;;;;;;;14.07;6.40;;;;;;;14.43;45.92;102218.00;5114801;27;20490;-71
2022/12/06 00:21:38;;;;;;;12.07;5.90;;;;;;;14.46;46.11;102217.13;5113762;27;20027;-70
2022/12/06 00:24:19;;;;;;;13.97;5.70;;;;;;;14.73;45.46;102213.53;5132096;27;20482;-70
2022/12/06 00:26:46;;;;;;;9.67;4.83;;;;;;;14.52;45.73;102222.34;5123588;27;20054;-70
2022/12/06 00:29:14;;;;;;;12.77;4.80;;;;;;;14.85;45.16;102221.34;5131080;27;20548;-71
2022/12/06 00:31:40;;;;;;;16.77;5.50;;;;;;;15.30;44.42;102210.50;5114404;27;20486;-70
2022/12/06 00:34:05;;;;;;;12.10;4.97;;;;;;;15.02;45.27;102208.06;5115202;27;20019;-70
2022/12/06 00:36:34;;;;;;;20.70;5.57;;;;;;;15.37;44.23;102201.69;5114835;27;20482;-70
2022/12/06 00:39:02;;;;;;;14.47;5.83;;;;;;;14.93;44.55;102202.84;5112110;27;20035;-70
2022/12/06 00:41:27;;;;;;;13.13;4.27;;;;;;;14.55;45.95;102196.91;5132460;27;20027;-71
2022/12/06 00:43:53;;;;;;;14.37;4.60;;;;;;;14.10;46.05;102201.47;5132609;27;20493;-70
2022/12/06 00:46:24;;;;;;;12.73;5.07;;;;;;;14.75;45.08;102204.75;5132767;27;20063;-70
2022/12/06 00:48:51;;;;;;;13.53;5.23;;;;;;;14.99;44.18;102205.47;5114050;27;20106;-71
2022/12/06 00:51:17;;;;;;;11.37;5.10;;;;;;;14.38;45.89;102210.16;5114488;27;20394;-70
2022/12/06 00:53:43;;;;;;;7.60;4.67;;;;;;;14.84;45.20;102213.47;5112042;27;20022;-70
2022/12/06 00:56:09;;;;;;;12.50;5.40;;;;;;;14.58;45.70;102211.81;5113056;27;20038;-69
2022/12/06 00:58:35;;;;;;;9.07;4.37;;;;;;;14.41;46.14;102206.59;5111308;27;20030;-70
2022/12/06 01:01:15;;;;;;;11.27;5.00;;;;;;;14.62;45.84;102205.66;5111371;27;20131;-70
2022/12/06 01:03:42;;;;;;;13.77;5.00;;;;;;;15.15;44.28;102215.88;5128919;27;20042;-71
2022/12/06 01:06:10;;;;;;;12.70;4.70;;;;;;;15.07;44.35;102211.56;5114522;27;20026;-70
2022/12/06 01:08:36;;;;;;;10.50;4.23;;;;;;;14.88;44.60;102209.94;5113752;27;20023;-71
2022/12/06 01:11:03;;;;;;;10.97;4.50;;;;;;;14.88;45.12;102200.25;5127110;27;20394;-70
2022/12/06 01:13:28;;;;;;;13.80;4.27;;;;;;;15.02;44.40;102208.06;5112555;27;20035;-70
2022/12/06 01:15:54;;;;;;;9.93;4.07;;;;;;;14.72;45.29;102202.09;5113686;27;20038;-70
2022/12/06 01:18:20;;;;;;;12.83;4.80;;;;;;;14.11;45.92;102204.97;5113130;27;20027;-70
2022/12/06 01:20:46;;;;;;;12.57;4.63;;;;;;;14.45;45.76;102210.09;5108979;28;20031;-70
2022/12/06 01:23:12;;;;;;;7.70;4.00;;;;;;;14.46;45.94;102206.59;5129887;27;20479;-70
2022/12/06 01:25:37;;;;;;;11.77;4.40;;;;;;;14.78;45.09;102205.59;5113988;27;20386;-70
2022/12/06 01:28:03;;;;;;;10.80;3.97;;;;;;;14.70;45.06;102206.50;5109979;27;20084;-70
2022/12/06 01:30:28;;;;;;;8.57;4.40;;;;;;;14.52;45.78;102203.94;5130853;27;20559;-70
2022/12/06 01:32:54;;;;;;;11.33;4.23;;;;;;;14.54;45.30;102200.41;5113969;27;20027;-71
2022/12/06 01:35:19;;;;;;;9.43;3.83;;;;;;;14.72;45.43;102210.00;5130730;27;20054;-70
2022/12/06 01:37:44;;;;;;;12.67;4.33;;;;;;;14.69;45.43;102204.75;5113879;27;20027;-70
2022/12/06 01:40:11;;;;;;;11.43;5.17;;;;;;;14.69;45.43;102199.50;5132140;27;20587;-70
2022/12/06 01:42:36;;;;;;;9.03;3.77;;;;;;;14.79;45.28;102204.72;5111766;28;20458;-70
2022/12/06 01:45:02;;;;;;;6.70;3.27;;;;;;;14.93;44.79;102209.00;5111583;28;20113;-70
2022/12/06 01:47:36;;;;;;;7.97;3.97;;;;;;;14.12;46.61;102204.09;5113728;28;20023;-70
2022/12/06 01:50:01;;;;;;;13.03;4.13;;;;;;;15.03;44.80;102204.56;5113193;28;20027;-70
2022/12/06 01:52:50;;;;;;;8.67;4.13;;;;;;;15.46;43.96;102202.47;5113872;28;20091;-70
2022/12/06 01:55:18;;;;;;;9.87;4.07;;;;;;;15.15;44.27;102195.69;5130228;28;20031;-70
2022/12/06 01:57:43;;;;;;;8.80;4.07;;;;;;;15.10;44.24;102205.41;5113235;28;20058;-70
2022/12/06 02:00:09;;;;;;;8.73;3.90;;;;;;;14.74;45.27;102207.34;5111690;28;20081;-71
2022/12/06 02:02:34;;;;;;;6.87;3.33;;;;;;;14.53;45.56;102203.06;5113948;28;20031;-70
2022/12/06 02:05:01;;;;;;;12.97;3.50;;;;;;;14.82;44.99;102199.41;5129274;28;20035;-70
2022/12/06 02:07:28;;;;;;;8.53;3.77;;;;;;;15.37;43.95;102193.78;5112190;28;20069;-70
2022/12/06 02:09:54;;;;;;;9.13;3.40;;;;;;;14.53;45.31;102197.78;5108320;28;20080;-70
2022/12/06 02:12:19;;;;;;;7.57;3.60;;;;;;;14.55;45.04;102198.66;5113862;28;20030;-70
2022/12/06 02:14:50;;;;;;;11.30;3.50;;;;;;;15.17;44.57;102190.44;5111635;28;20023;-70
2022/12/06 02:17:48;;;;;;;7.23;3.60;;;;;;;14.98;44.29;102194.94;5129554;28;20050;-70
2022/12/06 02:20:14;;;;;;;10.60;3.60;;;;;;;15.27;44.17;102189.44;5114040;27;20118;-70
2022/12/06 02:23:07;;;;;;;10.37;3.43;;;;;;;14.75;45.05;102194.22;5116024;27;20153;-70
2022/12/06 02:25:54;;;;;;;8.63;3.33;;;;;;;14.74;44.91;102183.66;5135087;27;20056;-71
2022/12/06 02:28:25;;;;;;;4.80;3.00;;;;;;;14.98;44.48;102185.28;5108994;28;20054;-70
2022/12/06 02:31:10;;;;;;;8.30;3.70;;;;;;;15.28;44.22;102188.56;5115330;28;20055;-71
2022/12/06 02:34:08;;;;;;;7.43;3.20;;;;;;;15.30;44.00;102184.16;5115607;28;20551;-70
2022/12/06 02:36:36;;;;;;;9.97;3.20;;;;;;;15.21;44.43;102178.97;5095447;27;20438;-70
2022/12/06 02:39:08;;;;;;;9.30;2.63;;;;;;;15.26;43.86;102182.44;5114734;27;20031;-70
2022/12/06 02:42:09;;;;;;;9.80;3.13;;;;;;;15.06;44.18;102180.81;5135624;27;20019;-70
2022/12/06 02:44:38;;;;;;;8.53;2.80;;;;;;;14.63;44.96;102183.75;5099297;27;20143;-70
2022/12/06 02:47:06;;;;;;;6.57;2.93;;;;;;;14.74;45.31;102176.66;5113518;27;20414;-70
2022/12/06 02:49:34;;;;;;;8.63;3.00;;;;;;;15.24;44.30;102176.31;5130096;27;20023;-71
2022/12/06 02:52:01;;;;;;;9.77;2.77;;;;;;;15.02;44.68;102175.59;5119053;27;20490;-70
2022/12/06 02:54:28;;;;;;;7.70;2.67;;;;;;;15.22;44.31;102178.06;5114838;27;20508;-70
2022/12/06 02:56:54;;;;;;;6.63;2.67;;;;;;;14.58;45.44;102183.72;5115962;27;20025;-70
2022/12/06 02:59:19;;;;;;;7.40;3.30;;;;;;;14.37;45.78;102192.59;5114110;27;20047;-70
2022/12/06 03:01:51;;;;;;;9.23;2.83;;;;;;;15.20;44.62;102179.84;5114928;27;20035;-70
2022/12/06 03:04:30;;;;;;;5.67;2.40;;;;;;;14.84;45.09;102190.63;5133370;27;20504;-70
2022/12/06 03:07:01;;;;;;;7.90;2.60;;;;;;;14.83;44.68;102186.25;5115346;27;20080;-70
2022/12/06 03:10:21;;;;;;;8.93;2.43;;;;;;;15.21;44.32;102189.50;5135234;27;20061;-70
2022/12/06 03:12:57;;;;;;;7.63;2.07;;;;;;;15.27;44.42;102186.81;5073148;28;20047;-70
2022/12/06 03:15:36;;;;;;;11.30;2.60;;;;;;;15.37;44.06;102177.97;5115480;27;20100;-70
2022/12/06 03:18:18;;;;;;;6.77;2.53;;;;;;;15.17;45.02;102182.53;5111470;27;20496;-70
2022/12/06 03:21:11;;;;;;;4.15;2.20;;;;;;;15.22;44.16;102188.59;5133679;27;20090;-70
2022/12/06 03:23:44;;;;;;;7.00;2.75;;;;;;;14.61;45.29;102196.00;5134846;27;20019;-70
2022/12/06 03:26:13;;;;;;;5.45;2.53;;;;;;;14.63;45.86;102190.75;5115536;27;20050;-70
2022/12/06 03:28:40;;;;;;;7.93;2.60;;;;;;;15.34;44.00;102183.22;5105707;27;20039;-70
2022/12/06 03:31:10;;;;;;;8.40;3.37;;;;;;;15.18;44.65;102181.63;5131877;27;20027;-70
2022/12/06 03:33:41;;;;;;;7.97;2.90;;;;;;;15.22;44.19;102178.06;5114953;27;20023;-70
2022/12/06 03:36:09;;;;;;;12.57;2.53;;;;;;;15.34;44.07;102180.59;5116093;27;20030;-70
2022/12/06 03:38:50;;;;;;;6.03;3.27;;;;;;;15.09;44.95;102183.44;5114237;27;20049;-71
2022/12/06 03:41:18;;;;;;;9.73;2.60;;;;;;;15.27;44.17;102178.91;5114816;27;20023;-70
2022/12/06 03:43:43;;;;;;;5.10;2.50;;;;;;;15.41;43.90;102177.06;5115322;27;20058;-70
2022/12/06 03:46:20;;;;;;;6.00;2.70;;;;;;;15.29;44.20;102179.78;5115279;27;20430;-70
2022/12/06 03:48:50;;;;;;;7.53;2.93;;;;;;;15.49;43.45;102176.09;5112502;27;20023;-70
2022/12/06 03:51:23;;;;;;;10.07;3.00;;;;;;;15.35;43.81;102184.13;5113932;27;20031;-70
2022/12/06 03:53:52;;;;;;;6.20;2.70;;;;;;;15.65;43.44;102169.78;5133506;27;20033;-70
2022/12/06 03:56:18;;;;;;;7.63;2.77;;;;;;;15.23;43.61;102179.81;5111794;27;20068;-70
2022/12/06 03:58:44;;;;;;;5.83;2.50;;;;;;;15.42;43.65;102170.88;5115083;27;20138;-70
2022/12/06 04:01:10;;;;;;;10.00;3.13;;;;;;;15.36;43.92;102175.31;5115329;27;20553;-71
2022/12/06 04:03:35;;;;;;;8.27;2.93;;;;;;;15.84;43.01;102174.91;5115370;27;20030;-71
2022/12/06 04:06:05;;;;;;;10.33;3.97;;;;;;;15.16;44.33;102172.88;5134078;27;20027;-71
2022/12/06 04:08:31;;;;;;;4.80;2.33;;;;;;;15.40;44.00;102180.56;5114370;27;20027;-70
2022/12/06 04:10:57;;;;;;;12.50;2.57;;;;;;;15.54;43.33;102184.84;5111754;27;20113;-70
2022/12/06 04:13:22;;;;;;;9.77;2.97;;;;;;;15.70;43.18;102177.66;5133921;27;20457;-70
2022/12/06 04:15:48;;;;;;;7.93;2.80;;;;;;;15.56;43.08;102172.50;5133907;27;20023;-70
2022/12/06 04:18:15;;;;;;;5.87;2.70;;;;;;;15.37;43.47;102177.97;5132318;27;20031;-70
2022/12/06 04:23:36;;;;;;;9.50;2.80;;;;;;;15.22;43.39;102178.06;5132019;27;20491;-70
2022/12/06 04:26:03;;;;;;;6.87;2.53;;;;;;;15.07;43.11;102174.69;5115416;27;20445;-70
2022/12/06 04:39:25;;;;;;;8.33;2.93;;;;;;;14.38;45.11;102172.41;5119694;27;20049;-70
2022/12/06 04:44:34;;;;;;;7.97;3.00;;;;;;;14.24;45.57;102172.50;5130868;27;20069;-70
2022/12/06 04:47:00;;;;;;;6.57;3.23;;;;;;;13.68;46.86;102170.03;5112008;27;20482;-70
2022/12/06 04:49:26;;;;;;;9.83;4.20;;;;;;;14.02;46.00;102169.94;5114889;27;20042;-70
2022/12/06 04:51:52;;;;;;;9.70;5.77;;;;;;;14.06;45.76;102170.81;5110981;27;20500;-71
2022/12/06 04:54:18;;;;;;;9.93;6.70;;;;;;;14.04;45.44;102180.44;5113910;27;20019;-71
2022/12/06 04:56:43;;;;;;;10.67;3.53;;;;;;;14.65;43.75;102176.72;5112248;27;20079;-70
2022/12/06 04:59:08;;;;;;;6.63;4.13;;;;;;;14.24;44.78;102167.22;5131530;27;20462;-70
2022/12/06 05:01:34;;;;;;;8.03;3.40;;;;;;;14.36;45.10;102163.69;5111751;27;20474;-70
2022/12/06 05:03:59;;;;;;;6.60;3.13;;;;;;;13.92;46.27;102162.97;5132908;27;20031;-70
2022/12/06 05:06:24;;;;;;;6.20;3.30;;;;;;;13.49;46.79;102160.41;5112827;27;20037;-70
2022/12/06 05:08:50;;;;;;;5.70;2.63;;;;;;;13.07;47.02;102169.13;5130073;27;20034;-70
2022/12/06 05:11:15;;;;;;;5.40;3.67;;;;;;;14.00;45.58;102171.69;5112574;27;20058;-70
2022/12/06 05:13:41;;;;;;;6.40;3.53;;;;;;;13.07;47.83;102169.13;5109069;28;20104;-70
2022/12/06 05:16:06;;;;;;;6.83;3.47;;;;;;;13.39;47.05;102163.06;5100270;27;20069;-70
2022/12/06 05:18:32;;;;;;;7.87;3.20;;;;;;;14.26;45.16;102157.59;5108436;28;20028;-70
2022/12/06 05:21:12;;;;;;;6.97;3.53;;;;;;;14.04;45.63;102155.03;5093616;28;20458;-70
2022/12/06 05:23:37;;;;;;;9.37;3.27;;;;;;;13.98;45.36;102157.66;5093950;28;20398;-70
2022/12/06 05:26:05;;;;;;;5.03;2.80;;;;;;;14.24;45.31;102148.81;5097085;27;20034;-70
2022/12/06 05:28:32;;;;;;;5.43;2.50;;;;;;;14.05;44.60;102159.44;5110675;27;20035;-70
2022/12/06 05:30:57;;;;;;;13.53;6.30;;;;;;;14.31;44.26;102158.41;5129291;27;20474;-70
2022/12/06 05:33:24;;;;;;;15.13;7.63;;;;;;;14.05;44.83;102164.69;5132385;27;20034;-70
2022/12/06 05:35:49;;;;;;;7.83;4.67;;;;;;;14.31;44.18;102150.53;5112657;27;20027;-70
2022/12/06 05:38:15;;;;;;;6.90;3.83;;;;;;;14.07;44.75;102156.78;5113801;27;20027;-70
2022/12/06 05:40:41;;;;;;;9.07;4.03;;;;;;;14.11;44.77;102162.88;5129098;27;20035;-70
2022/12/06 05:43:07;;;;;;;7.47;3.53;;;;;;;13.91;45.22;102158.56;5113387;27;20059;-70
2022/12/06 05:45:32;;;;;;;6.50;3.53;;;;;;;14.61;43.77;102169.69;5112134;28;20070;-70
2022/12/06 05:47:58;;;;;;;5.50;3.17;;;;;;;13.97;44.86;102176.97;5112699;28;20058;-70
2022/12/06 05:50:23;;;;;;;5.73;2.80;;;;;;;13.68;45.29;102169.13;5113620;28;20019;-71
2022/12/06 05:52:56;;;;;;;6.53;2.93;;;;;;;13.60;45.47;102166.53;5112900;28;20341;-70
2022/12/06 05:55:21;;;;;;;;;;;;;;;14.21;44.37;102162.84;5113607;27;20066;-70
2022/12/06 05:57:46;;;;;;;8.87;2.90;;;;;;;14.11;44.64;102157.63;5135478;27;19945;-70
2022/12/06 06:00:13;;;;;;;4.10;2.83;;;;;;;14.20;44.22;102162.84;5116794;27;20509;-70
2022/12/06 06:02:39;;;;;;;4.97;2.73;;;;;;;14.16;44.26;102161.13;5116860;27;20080;-70
2022/12/06 06:05:04;;;;;;;3.57;2.63;;;;;;;13.95;44.75;102167.34;5118061;27;20031;-70
2022/12/06 06:07:29;;;;;;;5.93;2.97;;;;;;;14.15;44.09;102162.00;5117801;27;20031;-70
2022/12/06 06:09:55;;;;;;;7.77;2.57;;;;;;;13.69;44.20;102169.13;5114999;27;20027;-70
2022/12/06 06:12:20;;;;;;;5.93;2.77;;;;;;;14.26;43.76;102173.38;5116078;27;20468;-70
2022/12/06 06:14:45;;;;;;;4.43;2.83;;;;;;;13.85;44.82;102177.00;5117193;27;20027;-70
2022/12/06 06:17:12;;;;;;;3.73;2.27;;;;;;;13.82;44.71;102170.00;5117148;27;20031;-70
2022/12/06 06:19:38;;;;;;;6.17;3.33;;;;;;;13.46;45.13;102177.03;5117733;27;20027;-70
2022/12/06 06:22:03;;;;;;;6.60;3.33;;;;;;;13.85;44.38;102182.25;5116778;27;20027;-71
2022/12/06 06:24:35;;;;;;;6.97;2.80;;;;;;;13.94;44.55;102182.22;5114455;27;20070;-70
2022/12/06 06:27:01;;;;;;;7.97;3.53;;;;;;;13.38;44.85;102181.41;5133709;27;20395;-70
2022/12/06 06:29:27;;;;;;;24.47;10.90;;;;;;;13.33;45.73;102188.41;5117410;27;20431;-70
2022/12/06 06:31:52;;;;;;;12.47;6.67;;;;;;;13.67;44.74;102178.78;5132933;27;20043;-70
2022/12/06 06:34:17;;;;;;;12.87;5.90;;;;;;;13.26;45.42;102177.03;5115803;27;20023;-70
2022/12/06 06:36:43;;;;;;;10.40;6.03;;;;;;;13.55;45.36;102173.53;5115969;27;20023;-70
2022/12/06 06:39:08;;;;;;;8.97;5.57;;;;;;;13.28;45.26;102175.25;5134249;27;20071;-70
2022/12/06 06:41:33;;;;;;;14.20;9.30;;;;;;;13.76;44.55;102166.50;5117390;27;20493;-70
2022/12/06 06:43:59;;;;;;;27.63;22.13;;;;;;;13.60;44.62;102161.28;5115875;27;20424;-70
2022/12/06 06:46:24;;;;;;;95.77;62.13;;;;;;;13.84;43.93;102170.00;5133556;27;20088;-70
2022/12/06 06:48:50;;;;;;;67.80;42.83;;;;;;;13.57;44.33;102171.78;5117259;27;20027;-70
2022/12/06 06:51:15;;;;;;;87.63;50.47;;;;;;;13.30;44.70;102162.13;5114467;27;20023;-70
2022/12/06 06:53:41;;;;;;;35.40;23.47;;;;;;;13.06;45.18;102154.28;5114091;27;20031;-70
2022/12/06 06:56:06;;;;;;;19.37;10.07;;;;;;;13.38;43.65;102153.41;5133328;27;20068;-70
2022/12/06 06:58:32;;;;;;;25.67;16.13;;;;;;;13.21;44.40;102157.75;5116384;27;20360;-70
2022/12/06 07:00:59;;;;;;;19.57;12.47;;;;;;;13.19;43.75;102159.53;5113290;28;20461;-70
2022/12/06 07:03:26;;;;;;;19.93;11.20;;;;;;;12.60;45.84;102162.06;5114358;28;20055;-70
2022/12/06 07:05:55;;;;;;;14.80;9.37;;;;;;;12.78;44.99;102158.59;5111125;28;20470;-70
2022/12/06 07:08:21;;;;;;;14.80;9.00;;;;;;;12.78;44.40;102158.59;5109288;28;20036;-70
2022/12/06 07:10:47;;;;;;;14.70;8.30;;;;;;;12.53;45.47;102157.69;5112449;28;20122;-70
2022/12/06 07:13:21;;;;;;;9.87;6.40;;;;;;;12.72;44.72;102159.47;5113208;28;20044;-70
2022/12/06 07:15:47;;;;;;;10.13;5.77;;;;;;;12.62;44.76;102162.94;5112874;28;20019;-70
2022/12/06 07:18:12;;;;;;;7.90;4.90;;;;;;;12.56;44.56;102157.69;5113908;28;20032;-70
2022/12/06 07:20:37;;;;;;;7.50;4.13;;;;;;;12.39;44.92;102158.50;5112618;28;20024;-70
2022/12/06 07:23:03;;;;;;;9.10;4.47;;;;;;;12.22;45.15;102157.56;5113408;28;20035;-70
2022/12/06 07:25:31;;;;;;;8.37;3.93;;;;;;;12.18;45.10;102151.41;5110043;27;20031;-70
2022/12/06 07:27:56;;;;;;;5.13;3.80;;;;;;;11.91;45.61;102154.75;5110425;28;20019;-71
2022/12/06 07:30:22;;;;;;;10.70;4.60;;;;;;;11.86;45.72;102153.84;5112882;28;20030;-71
2022/12/06 07:32:47;;;;;;;7.47;4.10;;;;;;;11.62;46.13;102150.22;5113323;28;20029;-71
2022/12/06 07:35:12;;;;;;;7.43;4.90;;;;;;;11.58;46.02;102151.06;5110277;28;20098;-70
2022/12/06 07:37:42;;;;;;;7.33;4.53;;;;;;;11.61;45.90;102153.69;5109691;28;20023;-70
2022/12/06 07:40:08;;;;;;;10.03;5.30;;;;;;;11.62;45.80;102159.81;5105955;28;20027;-70
2022/12/06 07:45:17;;;;;;;9.07;4.20;;;;;;;11.51;45.81;102167.56;5112512;28;20058;-71
2022/12/06 07:47:43;;;;;;;12.33;3.93;;;;;;;11.58;45.62;102169.41;5111868;28;20423;-70
2022/12/06 07:50:11;;;;;;;12.23;3.90;;;;;;;11.32;46.18;102177.94;5109564;28;20027;-70
2022/12/06 07:52:37;;;;;;;8.23;4.00;;;;;;;11.38;45.89;102177.97;5096936;28;20063;-70
2022/12/06 07:55:03;;;;;;;6.87;4.03;;;;;;;11.30;46.33;102179.63;5105315;27;20430;-71
2022/12/06 07:57:29;;;;;;;5.50;3.70;;;;;;;11.30;46.23;102179.63;5093660;28;20020;-71
2022/12/06 07:59:54;;;;;;;8.70;4.60;;;;;;;11.22;46.69;102181.31;5106433;28;20047;-71
2022/12/06 08:02:23;;;;;;;10.73;6.97;;;;;;;11.41;45.72;102178.88;5107522;28;20061;-71
2022/12/06 08:04:48;;;;;;;10.20;5.70;;;;;;;11.12;46.70;102189.97;5109124;28;20498;-70
2022/12/06 08:07:14;;;;;;;8.87;5.53;;;;;;;11.01;46.53;102187.22;5111950;28;20024;-71
2022/12/06 08:09:40;;;;;;;9.27;6.03;;;;;;;11.09;46.41;102179.47;5107258;28;20034;-71
2022/12/06 08:12:07;;;;;;;13.87;6.57;;;;;;;10.96;47.11;102188.91;5109072;28;20127;-71
2022/12/06 08:14:32;;;;;;;8.40;6.03;;;;;;;10.85;47.17;102186.19;5108989;28;20023;-70
2022/12/06 08:16:58;;;;;;;9.83;5.67;;;;;;;11.03;46.79;102183.78;5112629;28;20099;-70
2022/12/06 08:19:23;;;;;;;8.90;5.87;;;;;;;10.97;47.10;102186.31;5110760;28;20102;-71
2022/12/06 08:21:49;;;;;;;9.93;5.80;;;;;;;11.00;46.42;102185.47;5109317;28;20034;-71
2022/12/06 08:24:14;;;;;;;9.27;5.27;;;;;;;10.97;47.20;102180.22;5107676;28;20051;-70
2022/12/06 08:26:39;;;;;;;8.77;4.33;;;;;;;11.08;46.46;102177.72;5106684;28;20028;-71
2022/12/06 08:29:05;;;;;;;8.07;4.60;;;;;;;11.37;45.25;102171.00;5111123;28;20028;-71
2022/12/06 08:31:33;;;;;;;7.47;4.40;;;;;;;11.29;46.01;102175.28;5111453;27;20046;-71
2022/12/06 08:33:59;;;;;;;10.10;4.67;;;;;;;11.19;46.41;102186.53;5101488;28;20114;-71
2022/12/06 08:36:24;;;;;;;8.00;4.57;;;;;;;11.25;46.29;102181.34;5111488;28;20456;-71
2022/12/06 08:38:51;;;;;;;8.17;5.60;;;;;;;11.60;45.03;102185.97;5107038;28;20023;-72
2022/12/06 08:44:02;;;;;;;11.93;5.13;;;;;;;11.90;45.12;102184.44;5102032;27;20513;-71
2022/12/06 08:46:29;;;;;;;8.87;4.97;;;;;;;11.96;45.41;102181.00;5107956;28;20034;-71
2022/12/06 08:48:56;;;;;;;11.50;5.10;;;;;;;11.89;45.88;102185.31;5112100;27;20031;-71
2022/12/06 08:51:22;;;;;;;18.97;6.10;;;;;;;11.90;46.88;102181.81;5102512;28;20012;-71
2022/12/06 08:53:47;;;;;;;11.67;5.77;;;;;;;12.30;45.62;102184.69;5103377;28;20495;-71
2022/12/06 08:56:13;;;;;;;11.00;5.43;;;;;;;12.46;45.93;102176.88;5108573;28;20028;-71
2022/12/06 08:58:39;;;;;;;11.07;5.17;;;;;;;12.37;47.06;102181.19;5101819;28;20096;-71
2022/12/06 09:01:17;;;;;;;12.90;5.83;;;;;;;12.76;46.11;102180.44;5104766;28;20051;-71
2022/12/06 09:03:42;;;;;;;10.83;5.47;;;;;;;12.87;45.08;102178.72;5106590;28;20042;-71
2022/12/06 09:06:08;;;;;;;32.20;7.70;;;;;;;12.14;47.14;102185.47;5108451;28;20031;-71
2022/12/06 09:08:36;;;;;;;14.73;5.97;;;;;;;12.97;45.50;102180.50;5087349;28;20578;-71
2022/12/06 09:11:02;;;;;;;13.63;5.80;;;;;;;13.03;45.42;102183.13;5107321;28;20065;-71
2022/12/06 09:13:28;;;;;;;14.13;6.33;;;;;;;13.21;45.26;102177.00;5107098;27;20449;-71
2022/12/06 09:15:53;;;;;;;15.93;5.67;;;;;;;12.85;45.83;102176.09;5108367;28;20020;-71
2022/12/06 09:18:19;;;;;;;7.63;5.07;;;;;;;13.04;45.89;102182.25;5107245;28;20409;-71
2022/12/06 09:20:44;;;;;;;14.40;5.80;;;;;;;13.02;46.00;102189.25;5108573;28;20115;-71
2022/12/06 09:23:09;;;;;;;14.57;6.30;;;;;;;13.22;46.90;102185.78;5103692;28;20398;-70
2022/12/06 09:25:35;;;;;;;15.73;6.27;;;;;;;13.37;46.60;102180.56;5107296;28;20059;-71
2022/12/06 09:28:02;;;;;;;14.10;6.57;;;;;;;13.49;47.14;102184.03;5103562;28;20074;-71
2022/12/06 09:30:30;;;;;;;14.83;6.43;;;;;;;13.37;47.21;102180.56;5106050;28;20019;-71
2022/12/06 09:32:56;;;;;;;13.27;5.70;;;;;;;14.18;45.99;102185.69;5096549;28;20039;-70
2022/12/06 09:35:21;;;;;;;9.63;5.83;;;;;;;14.15;46.01;102177.78;5105178;27;21328;-71
2022/12/06 09:37:47;;;;;;;9.47;5.33;;;;;;;13.99;46.13;102175.19;5104657;28;20035;-70
2022/12/06 09:40:30;;;;;;;10.00;5.97;;;;;;;14.64;44.85;102180.22;5108032;28;20039;-70
2022/12/06 09:43:20;;;;;;;11.87;6.30;;;;;;;15.32;44.74;102171.84;5105502;28;20031;-70
2022/12/06 09:46:01;;;;;;;11.30;6.20;;;;;;;15.67;42.88;102165.38;5098937;28;20076;-70
2022/12/06 09:48:45;;;;;;;12.90;5.83;;;;;;;15.47;44.07;102180.50;5090251;28;20486;-71
2022/12/06 09:51:35;;;;;;;11.60;5.57;;;;;;;15.10;43.52;102195.72;5089311;28;20038;-70
2022/12/06 09:54:32;;;;;;;11.20;5.60;;;;;;;15.63;42.87;102179.47;5099560;28;20070;-71
2022/12/06 09:57:06;;;;;;;15.47;6.23;;;;;;;15.72;43.26;102184.66;5109801;28;20486;-71
2022/12/06 10:00:04;;;;;;;12.37;6.80;;;;;;;15.13;44.01;102178.16;5116434;28;20086;-70
2022/12/06 10:02:42;;;;;;;12.23;4.83;;;;;;;15.87;42.01;102180.16;5111920;28;20072;-70
2022/12/06 10:05:32;;;;;;;8.77;4.63;;;;;;;16.31;41.90;102178.75;5113494;28;20072;-70
2022/12/06 10:08:17;;;;;;;20.03;10.80;;;;;;;16.56;42.04;102178.44;5130765;27;20020;-70
2022/12/06 10:10:45;;;;;;;12.73;8.73;;;;;;;16.18;42.74;102171.88;5113088;28;20490;-70
2022/12/06 10:13:12;;;;;;;22.33;14.57;;;;;;;15.58;42.00;102173.38;5112679;28;20076;-71
2022/12/06 10:15:45;;;;;;;16.20;8.97;;;;;;;15.56;42.38;102177.78;5111562;28;20023;-70
2022/12/06 10:18:29;;;;;;;8.60;5.83;;;;;;;15.64;41.84;102175.94;5113323;28;20204;-71
2022/12/06 10:21:24;;;;;;;6.37;4.83;;;;;;;14.50;44.30;102182.03;5113253;28;20070;-70
2022/12/06 10:24:02;;;;;;;8.10;4.40;;;;;;;14.57;44.33;102184.59;5126568;28;20039;-70
2022/12/06 10:26:42;;;;;;;9.67;4.20;;;;;;;15.08;42.71;102175.53;5130761;27;20098;-70
2022/12/06 10:29:37;;;;;;;8.53;4.27;;;;;;;15.26;42.96;102174.53;5131666;28;20031;-70
2022/12/06 10:32:15;;;;;;;7.83;3.70;;;;;;;15.92;41.96;102176.56;5113198;28;20019;-70
2022/12/06 10:35:12;;;;;;;11.10;3.93;;;;;;;16.27;41.19;102167.34;5131678;28;20527;-70
2022/12/06 10:37:46;;;;;;;11.33;4.77;;;;;;;15.48;40.90;102167.31;5112221;28;20019;-70
2022/12/06 10:40:21;;;;;;;12.23;3.33;;;;;;;15.38;41.33;102163.88;5113128;27;20486;-71
2022/12/06 10:43:01;;;;;;;20.53;6.80;;;;;;;15.64;41.19;102159.28;5096091;28;20035;-70
2022/12/06 10:49:28;;;;;;;7.67;3.33;;;;;;;14.74;42.36;102154.72;5010158;28;20080;-70
2022/12/06 10:51:59;;;;;;;4.33;2.77;;;;;;;14.70;41.75;102151.25;5011254;28;20065;-70
2022/12/06 10:55:13;;;;;;;7.97;3.80;;;;;;;14.93;41.22;102150.19;5103648;28;20043;-70
2022/12/06 10:58:01;;;;;;;8.07;3.60;;;;;;;15.80;40.34;102144.19;5030847;28;20033;-70
2022/12/06 11:00:33;;;;;;;8.10;4.13;;;;;;;15.42;40.36;102139.25;5045421;28;20053;-70
2022/12/06 11:03:15;;;;;;;6.37;3.23;;;;;;;14.82;41.67;102137.13;5079394;28;20031;-70
2022/12/06 11:05:53;;;;;;;8.52;2.97;;;;;;;15.33;40.67;102136.72;5113965;28;20038;-70
2022/12/06 11:08:28;;;;;;;17.77;8.63;;;;;;;15.52;40.46;102132.13;5096026;28;20024;-70
2022/12/06 11:10:56;;;;;;;7.83;3.03;;;;;;;15.22;40.04;102135.94;5110496;27;20482;-70
2022/12/06 11:13:36;;;;;;;7.73;3.00;;;;;;;15.50;39.88;102135.69;5115752;27;20019;-70
2022/12/06 11:16:10;;;;;;;8.30;2.67;;;;;;;15.46;40.07;102133.97;5116426;27;20023;-70
2022/12/06 11:18:36;;;;;;;5.10;2.33;;;;;;;15.21;40.23;102132.44;5114549;27;20023;-70
2022/12/06 11:21:14;;;;;;;4.27;2.10;;;;;;;15.22;41.79;102130.66;5114695;27;20747;-70
2022/12/06 11:23:59;;;;;;;3.37;1.80;;;;;;;14.88;42.88;102130.97;5116110;27;20379;-70
2022/12/06 11:26:39;;;;;;;6.57;1.93;;;;;;;15.47;41.42;102131.31;5115311;27;20038;-70
2022/12/06 11:29:12;;;;;;;4.77;1.70;;;;;;;15.68;40.29;102127.59;5115807;27;20029;-71
2022/12/06 11:31:58;;;;;;;5.47;1.60;;;;;;;15.40;41.00;102114.69;5115985;27;20026;-70
2022/12/06 11:34:46;;;;;;;7.30;2.10;;;;;;;15.63;40.98;102121.47;5114507;27;20110;-71
2022/12/06 11:37:18;;;;;;;3.53;1.47;;;;;;;16.41;39.35;102119.69;5114447;27;20023;-70
2022/12/06 11:39:46;;;;;;;5.75;1.40;;;;;;;15.87;40.49;102114.25;5114214;27;20105;-70
2022/12/06 11:42:16;;;;;;;3.60;1.57;;;;;;;15.87;40.46;102117.75;5115730;27;20431;-71
2022/12/06 11:44:52;;;;;;;5.57;1.30;;;;;;;14.57;41.88;102115.31;5115590;27;20442;-71
2022/12/06 11:47:20;;;;;;;3.27;1.40;;;;;;;14.63;42.64;102117.97;5115238;27;20087;-71
2022/12/06 11:49:48;;;;;;;5.83;1.20;;;;;;;14.54;43.22;102120.63;5114853;27;20071;-71
2022/12/06 11:52:20;;;;;;;3.70;0.93;;;;;;;14.90;42.55;102114.25;5114991;28;20065;-71
2022/12/06 11:55:01;;;;;;;2.63;1.05;;;;;;;14.53;43.18;102113.59;5114006;27;20027;-71
2022/12/06 11:58:18;;;;;;;2.63;1.10;;;;;;;15.69;41.23;102105.63;5133880;27;20027;-71
2022/12/06 12:01:05;;;;;;;3.33;1.27;;;;;;;15.47;41.62;102104.97;5028458;28;20540;-71
2022/12/06 12:03:36;;;;;;;5.07;1.53;;;;;;;15.90;41.15;102108.94;5133760;27;20022;-71